createdAt,value
2018-02-13T00:01:50.520Z,18.17
2018-02-13T00:04:18.358Z,14.73
2018-02-13T00:06:47.178Z,14.67
2018-02-13T00:09:14.858Z,13.93
2018-02-13T00:11:42.515Z,13.68
2018-02-13T00:14:10.923Z,13.37
2018-02-13T00:16:39.830Z,11.98
2018-02-13T00:19:08.066Z,11.67
2018-02-13T00:21:36.251Z,10.40
2018-02-13T00:24:03.774Z,10.97
2018-02-13T00:26:33.889Z,11.57
2018-02-13T00:29:01.779Z,11.35
2018-02-13T00:31:30.779Z,12.27
2018-02-13T00:33:59.285Z,12.63
2018-02-13T00:36:26.889Z,13.43
2018-02-13T00:38:55.748Z,11.73
2018-02-13T00:41:24.489Z,11.43
2018-02-13T00:43:52.791Z,12.87
2018-02-13T00:46:21.044Z,13.33
2018-02-13T00:48:48.599Z,13.60
2018-02-13T00:51:16.466Z,15.40
2018-02-13T00:53:46.652Z,16.60
2018-02-13T00:56:14.453Z,17.23
2018-02-13T00:58:42.058Z,16.73
2018-02-13T01:01:09.721Z,17.12
2018-02-13T01:03:37.495Z,17.80
2018-02-13T01:06:05.690Z,16.17
2018-02-13T01:08:33.234Z,16.03
2018-02-13T01:11:00.776Z,16.10
2018-02-13T01:13:28.670Z,17.43
2018-02-13T01:15:56.198Z,16.90
2018-02-13T01:18:24.276Z,17.27
2018-02-13T01:20:51.846Z,16.23
2018-02-13T01:23:20.005Z,16.25
2018-02-13T01:25:47.733Z,16.83
2018-02-13T01:28:15.284Z,17.43
2018-02-13T01:30:42.890Z,20.35
2018-02-13T01:33:10.437Z,21.57
2018-02-13T01:35:43.789Z,19.43
2018-02-13T01:38:12.018Z,20.63
2018-02-13T01:40:39.897Z,18.60
2018-02-13T01:43:07.582Z,17.23
2018-02-13T01:45:35.299Z,15.13
2018-02-13T01:48:02.976Z,16.00
2018-02-13T01:50:30.635Z,14.47
2018-02-13T01:52:58.254Z,15.47
2018-02-13T01:55:25.938Z,15.33
2018-02-13T01:57:53.624Z,17.80
2018-02-13T02:00:21.163Z,20.35
2018-02-13T02:02:48.766Z,21.97
2018-02-13T02:05:16.297Z,22.93
2018-02-13T02:07:43.867Z,23.37
2018-02-13T02:10:11.420Z,22.03
2018-02-13T02:12:38.974Z,21.20
2018-02-13T02:15:06.556Z,21.10
2018-02-13T02:17:34.080Z,18.60
2018-02-13T02:20:01.654Z,17.27
2018-02-13T02:22:29.181Z,17.65
2018-02-13T02:24:56.734Z,16.37
2018-02-13T02:27:24.334Z,14.20
2018-02-13T02:29:51.940Z,14.47
2018-02-13T02:32:20.442Z,16.70
2018-02-13T02:34:47.966Z,16.70
2018-02-13T02:37:15.523Z,13.27
2018-02-13T02:39:43.152Z,15.73
2018-02-13T02:42:10.704Z,15.77
2018-02-13T02:44:38.271Z,17.83
2018-02-13T02:47:05.907Z,15.57
2018-02-13T02:49:33.434Z,15.20
2018-02-13T02:52:01.011Z,14.23
2018-02-13T02:54:28.615Z,15.13
2018-02-13T02:56:56.273Z,15.93
2018-02-13T02:59:23.834Z,16.37
2018-02-13T03:01:51.368Z,14.07
2018-02-13T03:04:18.921Z,13.40
2018-02-13T03:06:46.442Z,14.87
2018-02-13T03:09:13.994Z,15.07
2018-02-13T03:11:41.557Z,15.53
2018-02-13T03:14:09.105Z,14.73
2018-02-13T03:16:36.635Z,14.17
2018-02-13T03:19:04.184Z,16.87
2018-02-13T03:21:31.714Z,15.27
2018-02-13T03:23:59.313Z,18.70
2018-02-13T03:26:26.840Z,20.63
2018-02-13T03:28:54.365Z,22.20
2018-02-13T03:31:21.929Z,19.60
2018-02-13T03:33:49.447Z,16.77
2018-02-13T03:36:17.017Z,19.07
2018-02-13T03:38:44.577Z,17.97
2018-02-13T03:41:12.249Z,17.07
2018-02-13T03:43:39.785Z,19.60
2018-02-13T03:46:07.459Z,19.70
2018-02-13T03:48:35.067Z,18.23
2018-02-13T03:51:02.726Z,17.50
2018-02-13T03:53:31.469Z,17.63
2018-02-13T03:56:00.870Z,17.93
2018-02-13T03:58:30.238Z,16.80
2018-02-13T04:00:57.835Z,19.07
2018-02-13T04:03:25.402Z,17.70
2018-02-13T04:05:52.952Z,19.77
2018-02-13T04:08:20.724Z,17.62
2018-02-13T04:10:49.607Z,18.57
2018-02-13T04:13:17.134Z,16.67
2018-02-13T04:15:44.762Z,20.20
2018-02-13T04:18:12.295Z,19.50
2018-02-13T04:20:39.846Z,18.67
2018-02-13T04:23:07.402Z,18.70
2018-02-13T04:25:34.976Z,19.08
2018-02-13T04:28:02.522Z,19.73
2018-02-13T04:30:30.194Z,18.93
2018-02-13T04:32:57.852Z,17.58
2018-02-13T04:35:25.449Z,19.73
2018-02-13T04:37:52.981Z,21.83
2018-02-13T04:40:20.830Z,19.92
2018-02-13T04:42:48.505Z,19.57
2018-02-13T04:45:16.063Z,19.23
2018-02-13T04:47:43.637Z,19.37
2018-02-13T04:50:11.168Z,19.67
2018-02-13T04:52:38.798Z,23.00
2018-02-13T04:55:06.303Z,19.77
2018-02-13T04:57:33.951Z,20.63
2018-02-13T05:00:01.479Z,18.23
2018-02-13T05:02:29.073Z,15.95
2018-02-13T05:04:56.732Z,19.97
2018-02-13T05:07:24.261Z,18.30
2018-02-13T05:09:51.810Z,17.08
2018-02-13T05:12:19.336Z,20.43
2018-02-13T05:14:46.890Z,18.93
2018-02-13T05:17:14.418Z,18.23
2018-02-13T05:19:42.001Z,17.90
2018-02-13T05:22:09.596Z,19.87
2018-02-13T05:24:37.150Z,18.10
2018-02-13T05:27:04.674Z,20.27
2018-02-13T05:29:32.253Z,18.93
2018-02-13T05:31:59.805Z,17.07
2018-02-13T05:34:27.454Z,18.35
2018-02-13T05:36:55.011Z,18.17
2018-02-13T05:39:22.564Z,19.07
2018-02-13T05:41:51.142Z,18.52
2018-02-13T05:44:18.720Z,18.17
2018-02-13T05:46:46.294Z,18.93
2018-02-13T05:49:13.823Z,18.13
2018-02-13T05:51:41.383Z,18.13
2018-02-13T05:54:08.926Z,18.95
2018-02-13T05:56:36.555Z,18.47
2018-02-13T05:59:04.174Z,17.10
2018-02-13T06:01:31.781Z,18.93
2018-02-13T06:03:59.388Z,17.67
2018-02-13T06:06:26.914Z,18.60
2018-02-13T06:08:54.504Z,18.00
2018-02-13T06:11:22.119Z,19.00
2018-02-13T06:13:49.726Z,17.30
2018-02-13T06:16:17.275Z,17.17
2018-02-13T06:18:44.853Z,16.57
2018-02-13T06:21:12.377Z,17.80
2018-02-13T06:23:39.962Z,18.02
2018-02-13T06:26:07.490Z,16.83
2018-02-13T06:28:35.089Z,19.35
2018-02-13T06:31:02.722Z,19.13
2018-02-13T06:33:30.261Z,17.97
2018-02-13T06:35:57.843Z,20.17
2018-02-13T06:38:25.422Z,20.93
2018-02-13T06:40:53.072Z,18.80
2018-02-13T06:43:20.649Z,19.73
2018-02-13T06:45:48.399Z,20.53
2018-02-13T06:48:15.924Z,21.43
2018-02-13T06:50:43.628Z,21.87
2018-02-13T06:53:11.154Z,22.17
2018-02-13T06:55:38.683Z,21.07
2018-02-13T06:58:06.298Z,20.90
2018-02-13T07:00:33.810Z,19.40
2018-02-13T07:03:01.368Z,19.63
2018-02-13T07:05:28.945Z,17.80
2018-02-13T07:07:56.493Z,19.27
2018-02-13T07:10:24.102Z,19.40
2018-02-13T07:12:52.492Z,19.67
2018-02-13T07:15:20.072Z,19.27
2018-02-13T07:17:47.626Z,21.37
2018-02-13T07:20:15.221Z,22.55
2018-02-13T07:22:42.806Z,20.87
2018-02-13T07:25:10.346Z,20.73
2018-02-13T07:27:37.941Z,22.30
2018-02-13T07:30:05.630Z,21.10
2018-02-13T07:32:33.267Z,23.02
2018-02-13T07:35:00.924Z,19.62
2018-02-13T07:37:28.536Z,18.10
2018-02-13T07:39:58.035Z,18.97
2018-02-13T07:42:25.574Z,20.40
2018-02-13T07:44:53.156Z,20.50
2018-02-13T07:47:20.899Z,21.47
2018-02-13T07:49:48.533Z,20.07
2018-02-13T07:52:16.077Z,19.20
2018-02-13T07:54:43.638Z,19.03
2018-02-13T07:57:11.187Z,20.07
2018-02-13T07:59:38.771Z,20.17
2018-02-13T08:02:06.444Z,23.90
2018-02-13T08:04:33.996Z,22.83
2018-02-13T08:07:01.566Z,22.43
2018-02-13T08:09:29.099Z,21.60
2018-02-13T08:11:56.772Z,22.50
2018-02-13T08:14:24.683Z,23.43
2018-02-13T08:16:53.952Z,21.23
2018-02-13T08:19:26.237Z,23.30
2018-02-13T08:21:54.059Z,22.43
2018-02-13T08:24:22.527Z,24.50
2018-02-13T08:26:51.266Z,23.97
2018-02-13T08:29:18.845Z,22.17
2018-02-13T08:31:46.369Z,19.15
2018-02-13T08:34:14.024Z,20.30
2018-02-13T08:36:41.551Z,19.37
2018-02-13T08:39:09.105Z,18.87
2018-02-13T08:41:36.703Z,18.83
2018-02-13T08:44:04.779Z,17.27
2018-02-13T08:46:32.310Z,17.33
2018-02-13T08:48:59.958Z,17.73
2018-02-13T08:51:29.761Z,15.98
2018-02-13T08:53:58.617Z,16.17
2018-02-13T08:56:26.157Z,15.87
2018-02-13T08:58:53.693Z,15.18
2018-02-13T09:01:21.245Z,14.68
2018-02-13T09:03:50.178Z,13.73
2018-02-13T09:06:17.730Z,12.77
2018-02-13T09:08:45.278Z,12.37
2018-02-13T09:11:12.851Z,11.77
2018-02-13T09:13:40.412Z,12.40
2018-02-13T09:16:09.322Z,12.47
2018-02-13T09:18:36.882Z,11.27
2018-02-13T09:21:04.915Z,11.68
2018-02-13T09:23:33.125Z,11.33
2018-02-13T09:26:00.688Z,10.87
2018-02-13T09:28:28.523Z,10.73
2018-02-13T09:30:56.791Z,11.93
2018-02-13T09:33:24.403Z,10.83
2018-02-13T09:35:52.017Z,9.97
2018-02-13T09:38:19.831Z,10.77
2018-02-13T09:40:47.633Z,10.37
2018-02-13T09:43:15.286Z,9.77
2018-02-13T09:45:42.866Z,7.00
2018-02-13T09:48:10.389Z,5.87
2018-02-13T09:50:38.362Z,6.07
2018-02-13T09:53:05.890Z,5.37
2018-02-13T09:55:33.622Z,5.60
2018-02-13T09:58:01.145Z,4.97
2018-02-13T10:00:31.268Z,5.17
2018-02-13T10:02:59.468Z,4.97
2018-02-13T10:05:27.762Z,4.87
2018-02-13T10:07:55.862Z,5.23
2018-02-13T10:10:36.815Z,4.27
2018-02-13T10:13:05.113Z,5.12
2018-02-13T10:15:32.697Z,4.40
2018-02-13T10:18:00.267Z,4.50
2018-02-13T10:20:28.369Z,4.47
2018-02-13T10:22:56.023Z,4.50
2018-02-13T10:25:23.603Z,3.90
2018-02-13T10:27:51.150Z,4.20
2018-02-13T10:30:18.830Z,4.50
2018-02-13T10:32:46.380Z,3.97
2018-02-13T10:35:13.930Z,5.30
2018-02-13T10:37:41.536Z,4.93
2018-02-13T10:40:09.037Z,4.90
2018-02-13T10:42:36.674Z,3.73
2018-02-13T10:45:05.214Z,3.60
2018-02-13T10:47:32.744Z,3.70
2018-02-13T10:50:00.296Z,4.00
2018-02-13T10:52:33.102Z,3.40
2018-02-13T10:55:00.703Z,3.13
2018-02-13T10:57:28.226Z,3.03
2018-02-13T10:59:57.450Z,3.47
2018-02-13T11:02:25.079Z,2.92
2018-02-13T11:04:52.626Z,2.87
2018-02-13T11:07:20.166Z,2.90
2018-02-13T11:09:47.735Z,3.00
2018-02-13T11:12:15.242Z,2.70
2018-02-13T11:14:42.821Z,2.50
2018-02-13T11:17:12.518Z,2.90
2018-02-13T11:19:40.226Z,3.03
2018-02-13T11:22:07.947Z,3.03
2018-02-13T11:24:35.475Z,2.50
2018-02-13T11:27:04.430Z,2.97
2018-02-13T11:29:31.959Z,3.00
2018-02-13T11:31:59.510Z,2.70
2018-02-13T11:34:27.003Z,3.60
2018-02-13T11:36:54.542Z,2.97
2018-02-13T11:39:22.063Z,3.53
2018-02-13T11:41:49.593Z,3.00
2018-02-13T11:44:17.241Z,3.28
2018-02-13T11:46:46.705Z,2.80
2018-02-13T11:49:14.317Z,3.00
2018-02-13T11:51:44.373Z,2.70
2018-02-13T11:54:12.155Z,3.00
2018-02-13T11:56:39.682Z,2.70
2018-02-13T11:59:07.227Z,2.80
2018-02-13T12:01:34.739Z,2.70
2018-02-13T12:04:04.090Z,3.00
2018-02-13T12:06:31.696Z,3.10
2018-02-13T12:08:59.240Z,2.97
2018-02-13T12:11:27.435Z,3.07
2018-02-13T12:13:55.131Z,3.40
2018-02-13T12:16:22.694Z,3.10
2018-02-13T12:18:50.204Z,3.15
2018-02-13T12:21:17.815Z,2.97
2018-02-13T12:23:45.331Z,2.73
2018-02-13T12:26:15.311Z,2.67
2018-02-13T12:28:43.010Z,2.30
2018-02-13T12:31:10.562Z,2.57
2018-02-13T12:33:38.090Z,2.20
2018-02-13T12:36:06.409Z,2.33
2018-02-13T12:38:33.971Z,2.40
2018-02-13T12:41:01.497Z,2.40
2018-02-13T12:43:29.050Z,2.53
2018-02-13T12:45:56.576Z,2.53
2018-02-13T12:48:24.256Z,2.30
2018-02-13T12:50:51.756Z,2.10
2018-02-13T12:53:19.259Z,2.27
2018-02-13T12:55:46.811Z,2.50
2018-02-13T12:58:14.362Z,2.43
2018-02-13T13:00:42.187Z,2.20
2018-02-13T13:03:09.717Z,2.47
2018-02-13T13:05:37.296Z,2.37
2018-02-13T13:08:04.922Z,2.23
2018-02-13T13:10:32.474Z,1.90
2018-02-13T13:13:00.327Z,2.50
2018-02-13T13:15:27.930Z,2.57
2018-02-13T13:17:55.431Z,2.10
2018-02-13T13:20:25.566Z,2.33
2018-02-13T13:22:53.198Z,2.50
2018-02-13T13:25:20.741Z,2.37
2018-02-13T13:27:53.920Z,2.10
2018-02-13T13:30:21.542Z,2.67
2018-02-13T13:32:49.206Z,1.83
2018-02-13T13:35:18.443Z,2.35
2018-02-13T13:37:45.999Z,1.90
2018-02-13T13:40:14.673Z,2.57
2018-02-13T13:42:42.256Z,2.47
2018-02-13T13:45:09.774Z,2.03
2018-02-13T13:47:37.334Z,2.60
2018-02-13T13:50:04.940Z,2.33
2018-02-13T13:52:32.463Z,2.80
2018-02-13T13:55:00.333Z,2.00
2018-02-13T13:57:27.880Z,2.40
2018-02-13T13:59:55.419Z,1.90
2018-02-13T14:02:24.839Z,2.50
2018-02-13T14:04:52.650Z,3.07
2018-02-13T14:07:20.682Z,2.77
2018-02-13T14:09:49.651Z,2.90
2018-02-13T14:12:17.202Z,3.17
2018-02-13T14:14:44.781Z,2.60
2018-02-13T14:17:12.385Z,2.60
2018-02-13T14:19:39.904Z,2.70
2018-02-13T14:22:07.439Z,2.80
2018-02-13T14:24:34.943Z,2.73
2018-02-13T14:27:02.593Z,2.93
2018-02-13T14:29:30.117Z,2.70
2018-02-13T14:31:57.726Z,3.07
2018-02-13T14:34:25.250Z,2.53
2018-02-13T14:36:53.261Z,2.23
2018-02-13T14:39:21.474Z,2.80
2018-02-13T14:41:48.982Z,2.80
2018-02-13T14:44:16.534Z,2.53
2018-02-13T14:46:44.065Z,2.53
2018-02-13T14:49:11.645Z,2.15
2018-02-13T14:51:39.170Z,2.80
2018-02-13T14:54:07.121Z,2.35
2018-02-13T14:56:39.821Z,2.10
2018-02-13T14:59:07.674Z,2.70
2018-02-13T15:01:36.349Z,2.27
2018-02-13T15:04:03.902Z,2.43
2018-02-13T15:06:32.134Z,2.43
2018-02-13T15:08:59.721Z,3.10
2018-02-13T15:11:27.762Z,2.77
2018-02-13T15:13:55.288Z,1.93
2018-02-13T15:16:22.892Z,2.30
2018-02-13T15:18:50.392Z,2.10
2018-02-13T15:21:18.143Z,2.23
2018-02-13T15:23:46.105Z,2.80
2018-02-13T15:26:13.698Z,2.35
2018-02-13T15:28:41.224Z,1.97
2018-02-13T15:31:08.794Z,2.60
2018-02-13T15:33:37.277Z,2.67
2018-02-13T15:36:04.784Z,3.43
2018-02-13T15:38:32.335Z,2.80
2018-02-13T15:40:59.862Z,2.87
2018-02-13T15:43:27.467Z,3.20
2018-02-13T15:45:54.990Z,3.80
2018-02-13T15:48:22.569Z,4.53
2018-02-13T15:50:50.071Z,4.30
2018-02-13T15:53:17.586Z,4.30
2018-02-13T15:55:45.151Z,5.30
2018-02-13T15:58:12.729Z,4.53
2018-02-13T16:00:40.281Z,5.25
2018-02-13T16:03:08.657Z,6.20
2018-02-13T16:05:36.195Z,5.50
2018-02-13T16:08:03.737Z,4.00
2018-02-13T16:10:31.868Z,9.73
2018-02-13T16:12:59.458Z,7.13
2018-02-13T16:15:27.023Z,11.67
2018-02-13T16:17:54.796Z,9.10
2018-02-13T16:20:24.200Z,6.18
2018-02-13T16:22:52.800Z,8.27
2018-02-13T16:25:20.831Z,5.90
2018-02-13T16:27:49.777Z,4.05
2018-02-13T16:30:18.046Z,3.63
2018-02-13T16:32:46.759Z,3.07
2018-02-13T16:35:14.564Z,2.80
2018-02-13T16:37:42.359Z,2.37
2018-02-13T16:40:11.702Z,3.13
2018-02-13T16:42:39.343Z,3.50
2018-02-13T16:45:07.850Z,3.08
2018-02-13T16:47:36.373Z,3.20
2018-02-13T16:50:03.898Z,3.33
2018-02-13T16:52:31.424Z,3.67
2018-02-13T16:54:59.792Z,3.13
2018-02-13T16:57:27.308Z,3.60
2018-02-13T16:59:55.209Z,3.53
2018-02-13T17:02:23.050Z,3.40
2018-02-13T17:04:50.739Z,3.73
2018-02-13T17:07:18.488Z,3.33
2018-02-13T17:09:46.446Z,3.00
2018-02-13T17:12:13.996Z,4.17
2018-02-13T17:14:42.217Z,5.65
2018-02-13T17:17:10.462Z,4.83
2018-02-13T17:19:38.337Z,4.10
2018-02-13T17:22:08.784Z,3.60
2018-02-13T17:24:36.539Z,4.35
2018-02-13T17:27:04.546Z,17.37
2018-02-13T17:29:32.563Z,10.00
2018-02-13T17:32:00.233Z,9.77
2018-02-13T17:34:28.116Z,10.00
2018-02-13T17:36:56.123Z,8.47
2018-02-13T17:39:24.186Z,9.27
2018-02-13T17:41:52.322Z,8.50
2018-02-13T17:44:21.836Z,7.55
2018-02-13T17:46:51.583Z,8.50
2018-02-13T17:49:19.397Z,8.30
2018-02-13T17:51:47.488Z,9.17
2018-02-13T17:54:15.096Z,11.20
2018-02-13T17:56:42.829Z,10.37
2018-02-13T17:59:10.661Z,11.50
2018-02-13T18:01:38.190Z,10.63
2018-02-13T18:04:06.592Z,12.57
2018-02-13T18:06:36.274Z,12.33
2018-02-13T18:09:06.812Z,13.30
2018-02-13T18:11:35.317Z,14.83
2018-02-13T18:14:04.880Z,15.70
2018-02-13T18:16:34.057Z,14.13
2018-02-13T18:19:02.927Z,12.70
2018-02-13T18:21:30.733Z,12.77
2018-02-13T18:24:03.300Z,12.60
2018-02-13T18:26:33.624Z,11.73
2018-02-13T18:29:03.083Z,11.13
2018-02-13T18:31:31.295Z,13.55
2018-02-13T18:34:00.815Z,13.83
2018-02-13T18:36:28.477Z,13.40
2018-02-13T18:38:56.838Z,12.37
2018-02-13T18:41:26.477Z,12.73
2018-02-13T18:43:56.654Z,12.40
2018-02-13T18:46:25.134Z,13.87
2018-02-13T18:48:52.983Z,14.33
2018-02-13T18:51:21.006Z,15.73
2018-02-13T18:53:48.590Z,14.87
2018-02-13T18:56:16.111Z,14.63
2018-02-13T18:58:43.675Z,14.20
2018-02-13T19:01:11.196Z,16.13
2018-02-13T19:03:38.755Z,14.17
2018-02-13T19:06:06.333Z,16.13
2018-02-13T19:08:33.882Z,14.47
2018-02-13T19:11:01.405Z,14.70
2018-02-13T19:13:28.983Z,14.30
2018-02-13T19:15:56.510Z,11.83
2018-02-13T19:18:24.111Z,12.67
2018-02-13T19:20:51.639Z,12.00
2018-02-13T19:23:19.170Z,12.33
2018-02-13T19:25:46.716Z,12.63
2018-02-13T19:28:14.270Z,10.60
2018-02-13T19:30:41.851Z,10.83
2018-02-13T19:33:09.395Z,11.47
2018-02-13T19:35:37.029Z,12.60
2018-02-13T19:38:04.555Z,12.67
2018-02-13T19:40:32.131Z,12.37
2018-02-13T19:42:59.683Z,13.83
2018-02-13T19:45:27.236Z,12.20
2018-02-13T19:47:54.795Z,12.40
2018-02-13T19:50:22.337Z,12.73
2018-02-13T19:52:49.895Z,13.30
2018-02-13T19:55:17.427Z,12.80
2018-02-13T19:57:45.078Z,13.35
2018-02-13T20:00:12.609Z,11.43
2018-02-13T20:02:40.270Z,12.05
2018-02-13T20:05:08.306Z,12.43
2018-02-13T20:07:36.207Z,12.10
2018-02-13T20:10:05.509Z,12.50
2018-02-13T20:12:33.262Z,13.70
2018-02-13T20:15:00.831Z,11.53
2018-02-13T20:17:28.422Z,12.20
2018-02-13T20:19:55.994Z,11.50
2018-02-13T20:22:23.534Z,11.10
2018-02-13T20:24:51.099Z,12.37
2018-02-13T20:27:18.625Z,13.20
2018-02-13T20:29:46.255Z,12.15
2018-02-13T20:32:13.778Z,13.63
2018-02-13T20:34:41.310Z,13.77
2018-02-13T20:37:08.947Z,14.13
2018-02-13T20:39:36.566Z,13.33
2018-02-13T20:42:04.138Z,13.20
2018-02-13T20:44:31.665Z,12.23
2018-02-13T20:46:59.307Z,12.65
2018-02-13T20:49:26.865Z,11.73
2018-02-13T20:51:54.524Z,11.18
2018-02-13T20:54:22.049Z,12.87
2018-02-13T20:56:49.651Z,14.30
2018-02-13T20:59:17.207Z,13.03
2018-02-13T21:01:44.758Z,12.20
2018-02-13T21:04:13.008Z,12.23
2018-02-13T21:06:40.612Z,12.13
2018-02-13T21:09:08.568Z,12.02
2018-02-13T21:11:36.115Z,12.83
2018-02-13T21:14:03.762Z,13.87
2018-02-13T21:16:32.473Z,15.47
2018-02-13T21:19:00.172Z,18.73
2018-02-13T21:21:28.522Z,18.80
2018-02-13T21:23:56.077Z,24.43
2018-02-13T21:26:23.631Z,23.70
2018-02-13T21:28:51.398Z,27.60
2018-02-13T21:31:18.983Z,26.40
2018-02-13T21:33:46.596Z,25.27
2018-02-13T21:36:14.903Z,22.80
2018-02-13T21:38:42.476Z,18.43
2018-02-13T21:41:10.147Z,16.83
2018-02-13T21:43:38.903Z,16.83
2018-02-13T21:46:07.750Z,15.43
2018-02-13T21:48:37.548Z,13.65
2018-02-13T21:51:05.251Z,14.23
2018-02-13T21:53:33.776Z,13.40
2018-02-13T21:56:01.309Z,12.40
2018-02-13T21:58:28.969Z,13.57
2018-02-13T22:00:56.510Z,13.33
2018-02-13T22:03:24.091Z,12.70
2018-02-13T22:05:51.661Z,12.88
2018-02-13T22:08:22.041Z,14.20
2018-02-13T22:10:49.972Z,13.90
2018-02-13T22:13:17.772Z,12.20
2018-02-13T22:15:46.404Z,13.37
2018-02-13T22:18:16.844Z,12.37
2018-02-13T22:20:44.480Z,13.10
2018-02-13T22:23:12.150Z,11.30
2018-02-13T22:25:39.712Z,11.32
2018-02-13T22:28:07.361Z,11.87
2018-02-13T22:30:34.941Z,11.27
2018-02-13T22:33:02.466Z,10.23
2018-02-13T22:35:31.014Z,11.10
2018-02-13T22:37:58.990Z,11.90
2018-02-13T22:40:27.922Z,11.80
2018-02-13T22:42:55.473Z,12.20
2018-02-13T22:45:23.897Z,12.43
2018-02-13T22:47:51.502Z,13.03
2018-02-13T22:50:19.081Z,12.70
2018-02-13T22:52:46.753Z,12.50
2018-02-13T22:55:14.288Z,12.93
2018-02-13T22:57:42.066Z,11.17
2018-02-13T23:00:13.270Z,10.93
2018-02-13T23:02:42.017Z,10.90
2018-02-13T23:05:12.137Z,11.50
2018-02-13T23:07:41.483Z,11.40
2018-02-13T23:10:10.204Z,11.07
2018-02-13T23:12:38.242Z,10.60
2018-02-13T23:15:07.380Z,11.10
2018-02-13T23:17:37.202Z,10.60
2018-02-13T23:20:05.255Z,10.43
2018-02-13T23:22:33.185Z,11.43
2018-02-13T23:25:01.593Z,12.10
2018-02-13T23:27:30.962Z,11.20
2018-02-13T23:29:59.288Z,12.20
2018-02-13T23:32:26.844Z,10.60
2018-02-13T23:34:54.398Z,11.48
2018-02-13T23:37:23.567Z,11.50
2018-02-13T23:39:52.166Z,11.77
2018-02-13T23:42:21.255Z,13.43
2018-02-13T23:44:49.256Z,12.37
2018-02-13T23:47:19.010Z,12.23
2018-02-13T23:49:47.854Z,12.02
2018-02-13T23:52:15.917Z,12.57
2018-02-13T23:54:44.866Z,13.00
2018-02-13T23:57:14.513Z,13.30
2018-02-13T23:59:42.271Z,12.50
